1PN0 weather

Bentley Airport
Pottstown, Pennsylvania, United States

Public forecast

Using degrees Fahrenheit for public forecast. Weather courtesy of forecast.io.

METAR (pilot weather report)

Closest report is Heritage Field, 7.6 nm (14.0 km) ENE. Retrieved 2019/09/23 17:54 UTC (44 minutes ago):

KPTW 231754Z AUTO 23007KT 9SM CLR 31/16 A2986 RMK AO2 SLP108 T03110156 10311 20200 58024

TAF (pilot weather forecast)

Closest forecast is Reading Regional Carl A Spaatz Field, 15.7 nm (29.0 km) NW. Retrieved 2019/09/23 18:30 UTC (8 minutes ago):

TAF KRDG 231728Z 2318/2418 26012KT P6SM FEW060 BKN250 FM232000 24010G16KT P6SM VCSH SCT045 BKN080 FM240000 25008KT 5SM SHRA BR BKN045 FM240300 28006KT P6SM SCT120 FM241600 31012G18KT P6SM SCT045